Wetterdaten: Sonntag, 23.01.2011
Datum Zeit Temp. Auen Feucht Auen Luftdruck Regen Richtung Richtung Windben
23.01.2011 00:02 -4,9 C 64 % 1100,7 hPa 0,0 mm N 0 0,0 km/h (0 Bft)
23.01.2011 00:17 -4,9 C 64 % 1100,5 hPa 0,0 mm N 0 0,0 km/h (0 Bft)
23.01.2011 00:32 -4,9 C 64 % 1100,6 hPa 0,0 mm N 0 0,0 km/h (0 Bft)
23.01.2011 00:47 -4,9 C 64 % 1100,3 hPa 0,0 mm N 0 0,0 km/h (0 Bft)
23.01.2011 01:02 -5,0 C 64 % 1100,3 hPa 0,0 mm N 0 0,0 km/h (0 Bft)
23.01.2011 01:17 -5,0 C 65 % 1100,2 hPa 0,0 mm N 0 0,0 km/h (0 Bft)
23.01.2011 01:32 -5,1 C 66 % 1100,1 hPa 0,0 mm N 0 0,0 km/h (0 Bft)
23.01.2011 01:47 -5,2 C 66 % 1100,1 hPa 0,0 mm N 0 0,0 km/h (0 Bft)
23.01.2011 02:02 -5,2 C 66 % 1099,8 hPa 0,0 mm N 0 0,0 km/h (0 Bft)
23.01.2011 02:17 -5,1 C 67 % 1099,9 hPa 0,0 mm N 0 0,0 km/h (0 Bft)
23.01.2011 02:32 -5,1 C 67 % 1099,7 hPa 0,0 mm N 0 0,0 km/h (0 Bft)
23.01.2011 02:47 -5,2 C 67 % 1099,7 hPa 0,0 mm N 0 0,0 km/h (0 Bft)
23.01.2011 03:02 -5,2 C 67 % 1099,6 hPa 0,0 mm N 0 0,0 km/h (0 Bft)
23.01.2011 03:17 -5,3 C 68 % 1099,3 hPa 0,0 mm N 0 0,0 km/h (0 Bft)
23.01.2011 03:32 -5,3 C 68 % 1099,4 hPa 0,0 mm N 0 0,0 km/h (0 Bft)
23.01.2011 03:47 -5,2 C 67 % 1099,3 hPa 0,0 mm N 0 0,0 km/h (0 Bft)
23.01.2011 04:02 -5,2 C 64 % 1099,0 hPa 0,0 mm N 0 0,0 km/h (0 Bft)
23.01.2011 04:17 -5,1 C 64 % 1099,0 hPa 0,0 mm N 0 0,0 km/h (0 Bft)
23.01.2011 04:32 -5,0 C 63 % 1098,8 hPa 0,0 mm N 0 0,0 km/h (0 Bft)
23.01.2011 04:47 -5,0 C 61 % 1098,8 hPa 0,0 mm N 0 0,0 km/h (0 Bft)
23.01.2011 05:02 -5,0 C 60 % 1098,8 hPa 0,0 mm N 0 0,0 km/h (0 Bft)
23.01.2011 05:17 -5,0 C 59 % 1099,0 hPa 0,0 mm N 0 0,0 km/h (0 Bft)
23.01.2011 05:32 -5,1 C 59 % 1098,9 hPa 0,0 mm N 0 0,0 km/h (0 Bft)
23.01.2011 05:47 -5,2 C 59 % 1098,9 hPa 0,0 mm N 0 0,0 km/h (0 Bft)
23.01.2011 06:02 -5,2 C 59 % 1098,9 hPa 0,0 mm N 0 0,0 km/h (0 Bft)
23.01.2011 06:17 -5,2 C 58 % 1098,8 hPa 0,0 mm N 0 0,0 km/h (0 Bft)
23.01.2011 06:32 -5,3 C 56 % 1099,0 hPa 0,0 mm N 0 0,0 km/h (0 Bft)
23.01.2011 06:47 -5,4 C 57 % 1099,0 hPa 0,0 mm N 0 0,0 km/h (0 Bft)
23.01.2011 07:02 -5,4 C 57 % 1099,2 hPa 0,0 mm W 270 8,6 km/h (2 Bft)
23.01.2011 07:17 -5,5 C 57 % 1099,1 hPa 0,0 mm N 0 0,0 km/h (0 Bft)
23.01.2011 07:32 -5,7 C 58 % 1099,2 hPa 0,0 mm N 0 0,0 km/h (0 Bft)
23.01.2011 07:47 -5,7 C 59 % 1099,4 hPa 0,0 mm N 0 0,0 km/h (0 Bft)
23.01.2011 08:02 -5,7 C 59 % 1099,3 hPa 0,0 mm N 0 0,0 km/h (0 Bft)
23.01.2011 08:17 -5,7 C 59 % 1099,4 hPa 0,0 mm N 0 0,0 km/h (0 Bft)
23.01.2011 08:32 -5,7 C 59 % 1099,2 hPa 0,0 mm N 0 0,0 km/h (0 Bft)
23.01.2011 08:47 -5,8 C 58 % 1099,2 hPa 0,0 mm N 0 0,0 km/h (0 Bft)
23.01.2011 09:02 -6,0 C 59 % 1099,4 hPa 0,0 mm N 0 0,0 km/h (0 Bft)
23.01.2011 09:17 -5,6 C 59 % 1099,4 hPa 0,0 mm N 0 0,0 km/h (0 Bft)
23.01.2011 09:32 -4,7 C 57 % 1099,2 hPa 0,0 mm N 0 0,0 km/h (0 Bft)
23.01.2011 09:47 -3,2 C 55 % 1098,7 hPa 0,0 mm N 0 0,0 km/h (0 Bft)
23.01.2011 10:02 -2,4 C 53 % 1098,5 hPa 0,0 mm N 0 0,0 km/h (0 Bft)
23.01.2011 10:17 -2,4 C 51 % 1098,3 hPa 0,0 mm W 270 1,1 km/h (1 Bft)
23.01.2011 10:32 -1,9 C 48 % 1098,0 hPa 0,0 mm N 0 0,0 km/h (0 Bft)
23.01.2011 10:47 -1,6 C 47 % 1097,8 hPa 0,0 mm N 0 0,0 km/h (0 Bft)
23.01.2011 11:02 -1,3 C 46 % 1097,6 hPa 0,0 mm N 0 0,0 km/h (0 Bft)
23.01.2011 11:17 -1,6 C 47 % 1097,5 hPa 0,0 mm N 0 0,0 km/h (0 Bft)
23.01.2011 11:32 -2,1 C 47 % 1097,6 hPa 0,0 mm SW 225 6,1 km/h (2 Bft)
23.01.2011 11:47 -1,9 C 47 % 1097,7 hPa 0,0 mm N 0 0,0 km/h (0 Bft)
23.01.2011 12:02 -2,3 C 46 % 1097,9 hPa 0,0 mm W 270 8,6 km/h (2 Bft)
23.01.2011 12:05 -2,3 C 46 % 1097,9 hPa 0,0 mm W 270 8,6 km/h (2 Bft)
23.01.2011 12:35 -1,1 C 44 % 1097,6 hPa 0,0 mm SW 225 5,0 km/h (1 Bft)
23.01.2011 12:50 -1,0 C 44 % 1097,2 hPa 0,0 mm SW 225 7,2 km/h (2 Bft)
23.01.2011 13:05 -1,0 C 44 % 1097,1 hPa 0,0 mm W 270 12,2 km/h (2 Bft)
23.01.2011 13:20 -1,2 C 44 % 1097,1 hPa 0,0 mm W 270 11,2 km/h (2 Bft)
23.01.2011 13:35 -1,8 C 44 % 1096,8 hPa 0,0 mm N 0 0,0 km/h (0 Bft)
23.01.2011 13:50 -2,5 C 46 % 1097,3 hPa 0,0 mm W 270 5,0 km/h (1 Bft)
23.01.2011 14:05 -2,8 C 47 % 1097,0 hPa 0,0 mm N 0 0,0 km/h (0 Bft)
23.01.2011 14:20 -2,7 C 47 % 1096,8 hPa 0,0 mm W 270 6,1 km/h (2 Bft)
23.01.2011 14:35 -2,8 C 47 % 1096,7 hPa 0,0 mm SW 225 9,7 km/h (2 Bft)
23.01.2011 14:50 -2,7 C 48 % 1096,6 hPa 0,0 mm N 0 0,0 km/h (0 Bft)
23.01.2011 15:05 -2,6 C 48 % 1096,4 hPa 0,0 mm SW 225 9,7 km/h (2 Bft)
23.01.2011 15:20 -2,7 C 48 % 1096,4 hPa 0,0 mm SW 225 9,7 km/h (2 Bft)
23.01.2011 15:35 -2,5 C 48 % 1096,8 hPa 0,0 mm W 270 7,2 km/h (2 Bft)
23.01.2011 15:50 -2,5 C 48 % 1096,7 hPa 0,0 mm W 270 11,2 km/h (2 Bft)
23.01.2011 16:05 -2,6 C 48 % 1096,8 hPa 0,0 mm SW 225 3,6 km/h (1 Bft)
23.01.2011 16:20 -2,9 C 49 % 1096,9 hPa 0,0 mm N 0 0,0 km/h (0 Bft)
23.01.2011 16:35 -3,1 C 51 % 1096,6 hPa 0,0 mm N 0 0,0 km/h (0 Bft)
23.01.2011 16:50 -3,3 C 51 % 1096,5 hPa 0,0 mm W 270 7,2 km/h (2 Bft)
23.01.2011 17:05 -3,4 C 52 % 1096,2 hPa 0,0 mm W 270 2,5 km/h (1 Bft)
23.01.2011 17:20 -3,5 C 53 % 1096,3 hPa 0,0 mm W 270 7,2 km/h (2 Bft)
23.01.2011 17:35 -3,6 C 54 % 1096,6 hPa 0,0 mm W 270 6,1 km/h (2 Bft)
23.01.2011 17:50 -3,6 C 55 % 1097,1 hPa 0,0 mm N 0 0,0 km/h (0 Bft)
23.01.2011 18:05 -3,7 C 55 % 1097,0 hPa 0,0 mm N 0 0,0 km/h (0 Bft)
23.01.2011 18:20 -3,7 C 55 % 1097,2 hPa 0,0 mm N 0 0,0 km/h (0 Bft)
23.01.2011 18:35 -3,7 C 55 % 1097,2 hPa 0,0 mm W 270 9,7 km/h (2 Bft)
23.01.2011 18:50 -3,7 C 54 % 1097,1 hPa 0,0 mm N 0 0,0 km/h (0 Bft)
23.01.2011 19:05 -3,8 C 55 % 1096,9 hPa 0,0 mm N 0 0,0 km/h (0 Bft)
23.01.2011 19:20 -3,8 C 55 % 1096,9 hPa 0,0 mm N 0 0,0 km/h (0 Bft)
23.01.2011 19:35 -3,9 C 56 % 1097,1 hPa 0,0 mm N 0 0,0 km/h (0 Bft)
23.01.2011 19:50 -3,8 C 57 % 1096,7 hPa 0,0 mm W 270 7,2 km/h (2 Bft)
23.01.2011 20:05 -3,9 C 57 % 1096,7 hPa 0,0 mm W 270 9,7 km/h (2 Bft)
23.01.2011 20:20 -4,0 C 58 % 1096,7 hPa 0,0 mm W 270 2,5 km/h (1 Bft)
23.01.2011 20:35 -4,0 C 58 % 1097,0 hPa 0,0 mm N 0 0,0 km/h (0 Bft)
23.01.2011 20:50 -3,9 C 58 % 1096,7 hPa 0,0 mm N 0 0,0 km/h (0 Bft)
23.01.2011 21:05 -3,9 C 58 % 1096,4 hPa 0,0 mm N 0 0,0 km/h (0 Bft)
23.01.2011 21:20 -3,9 C 58 % 1096,5 hPa 0,0 mm N 0 0,0 km/h (0 Bft)
23.01.2011 21:35 -3,9 C 59 % 1096,7 hPa 0,0 mm SW 225 3,6 km/h (1 Bft)
23.01.2011 21:50 -4,0 C 59 % 1096,6 hPa 0,0 mm N 0 0,0 km/h (0 Bft)
23.01.2011 22:05 -4,0 C 59 % 1096,3 hPa 0,0 mm W 270 9,7 km/h (2 Bft)
23.01.2011 22:20 -4,1 C 59 % 1096,5 hPa 0,0 mm W 270 8,6 km/h (2 Bft)
23.01.2011 22:35 -4,1 C 60 % 1096,6 hPa 0,0 mm W 270 7,2 km/h (2 Bft)
23.01.2011 22:50 -4,1 C 60 % 1096,5 hPa 0,0 mm W-NW 292 3,6 km/h (1 Bft)
23.01.2011 23:05 -4,1 C 61 % 1096,6 hPa 0,0 mm N 0 0,0 km/h (0 Bft)
23.01.2011 23:20 -4,1 C 61 % 1096,4 hPa 0,0 mm W 270 7,2 km/h (2 Bft)
23.01.2011 23:35 -4,1 C 62 % 1096,5 hPa 0,0 mm W 270 9,7 km/h (2 Bft)
23.01.2011 23:50 -4,1 C 63 % 1096,4 hPa 0,0 mm W 270 9,7 km/h (2 Bft)
_ Min-Zeit 09:02 12:35 17:05 - - - 00:02
Minimum _ -6,0 C 44 % 1096,2 hPa - - - 0,0 km/h (0 Bft)
_ Max-Zeit 12:50 03:17 00:02 00:02 - - 13:05
Maximum _ -1,0 C 68 % 1100,7 hPa 0,0 mm - - 12,2 km/h
W (2 Bft)
Durchschnitt _ -3,9 C 56 % 1098,0 hPa #0,0 mm N - 2,5 km/h (1 Bft)